Time;durP1;ratioP1;P1;durP2;ratioP2;P2;SDS_P1;SDS_P2;PMS_P1;PMS_P2;Temp;Humidity;BMP_temperature;BMP_pressure;BME280_temperature;BME280_humidity;BME280_pressure;Samples;Min_cycle;Max_cycle;Signal;HPM_P1;HPM_P2
2022/08/09 00:02:36;;;;;;;2.00;1.30;;;;;;;16.26;68.87;99507.73;104637;1274;76534;-25
2022/08/09 00:05:20;;;;;;;6.90;1.50;;;;;;;16.10;69.28;99512.52;104439;1277;77351;-25
2022/08/09 00:08:09;;;;;;;1.40;1.10;;;;;;;16.01;69.46;99509.48;104607;1274;75455;-25
2022/08/09 00:11:00;;;;;;;2.60;1.20;;;;;;;16.14;68.99;99509.98;104520;1274;64794;-25
2022/08/09 00:13:49;;;;;;;3.50;1.10;;;;;;;16.53;67.49;99507.04;104402;1274;63140;-25
2022/08/09 00:16:17;;;;;;;3.90;1.20;;;;;;;16.66;67.02;99502.46;104691;1273;75342;-25
2022/08/09 00:19:02;;;;;;;1.90;1.10;;;;;;;16.72;66.60;99508.91;104735;1274;75818;-25
2022/08/09 00:21:39;;;;;;;2.00;1.20;;;;;;;16.62;66.72;99511.05;104652;1275;75395;-25
2022/08/09 00:24:23;;;;;;;1.70;1.20;;;;;;;16.58;67.11;99516.71;104587;1274;62784;-25
2022/08/09 00:26:53;;;;;;;1.90;1.00;;;;;;;16.50;66.99;99515.36;104984;1274;63193;-25
2022/08/09 00:29:21;;;;;;;2.90;1.20;;;;;;;16.37;67.48;99518.04;104629;1274;75868;-25
2022/08/09 00:32:08;;;;;;;1.30;1.20;;;;;;;16.21;68.08;99524.34;104745;1271;75651;-24
2022/08/09 00:34:38;;;;;;;2.60;1.10;;;;;;;16.13;68.64;99523.60;104589;1274;75248;-24
2022/08/09 00:37:17;;;;;;;3.00;1.60;;;;;;;16.76;67.06;99518.92;104740;1271;61144;-25
2022/08/09 00:39:45;;;;;;;2.30;1.10;;;;;;;17.18;65.03;99518.89;104789;1274;62682;-25
2022/08/09 00:42:33;;;;;;;2.40;1.10;;;;;;;17.08;65.01;99522.51;104757;1271;76564;-25
2022/08/09 00:45:20;;;;;;;1.80;0.80;;;;;;;17.11;65.99;99522.56;104736;1274;76037;-25
2022/08/09 00:47:48;;;;;;;2.00;1.10;;;;;;;17.00;66.02;99526.84;104743;1271;74412;-24
2022/08/09 00:50:15;;;;;;;4.90;1.30;;;;;;;16.80;66.62;99525.77;104620;1274;61689;-25
2022/08/09 00:52:43;;;;;;;3.40;1.60;;;;;;;16.58;67.23;99524.95;104673;1272;63074;-25
2022/08/09 00:55:10;;;;;;;1.70;1.10;;;;;;;16.35;68.15;99524.04;104703;1271;76552;-25
2022/08/09 00:57:58;;;;;;;3.20;1.40;;;;;;;16.19;68.37;99528.86;104762;1271;76815;-25
2022/08/09 01:00:26;;;;;;;2.30;1.20;;;;;;;16.11;68.75;99529.34;104611;1272;74372;-24
2022/08/09 01:03:18;;;;;;;3.00;1.20;;;;;;;16.16;68.77;99523.05;104787;1271;64961;-25
2022/08/09 01:06:10;;;;;;;1.20;1.10;;;;;;;16.81;67.01;99515.48;104744;1273;61779;-25
2022/08/09 01:08:47;;;;;;;2.30;1.10;;;;;;;17.32;65.01;99510.36;104765;1271;76585;-25
2022/08/09 01:11:36;;;;;;;1.60;1.20;;;;;;;17.27;64.86;99510.91;104584;1274;75985;-25
2022/08/09 01:14:14;;;;;;;1.60;1.20;;;;;;;16.87;65.87;99513.55;104779;1274;75344;-25
2022/08/09 01:16:43;;;;;;;2.40;1.30;;;;;;;16.78;66.21;99518.55;104629;1271;62952;-25
2022/08/09 01:19:23;;;;;;;2.10;1.40;;;;;;;16.79;65.96;99515.14;104605;1274;62363;-25
2022/08/09 01:22:34;;;;;;;2.70;1.80;;;;;;;16.62;66.81;99515.45;104683;1271;76685;-25
2022/08/09 01:25:17;;;;;;;3.60;1.70;;;;;;;16.39;68.07;99518.95;104741;1271;77205;-25
2022/08/09 01:27:50;;;;;;;2.90;1.40;;;;;;;16.15;69.02;99524.81;104813;1271;73740;-24
2022/08/09 01:30:19;;;;;;;3.20;1.10;;;;;;;16.10;69.49;99527.52;104806;1272;63446;-24
2022/08/09 01:32:59;;;;;;;1.50;1.10;;;;;;;16.75;67.64;99523.11;104763;1272;62273;-25
2022/08/09 01:35:30;;;;;;;4.40;1.20;;;;;;;17.10;66.04;99518.05;104735;1271;76587;-25
2022/08/09 01:38:07;;;;;;;2.70;1.30;;;;;;;17.18;65.55;99518.36;104703;1274;77078;-25
2022/08/09 01:40:46;;;;;;;2.20;1.60;;;;;;;16.90;66.29;99518.47;104763;1272;75423;-25
2022/08/09 01:43:31;;;;;;;2.30;1.40;;;;;;;16.77;66.90;99523.14;104742;1271;62014;-25
2022/08/09 01:46:28;;;;;;;2.00;1.20;;;;;;;16.67;67.63;99522.32;104742;1271;62778;-25
2022/08/09 01:49:06;;;;;;;2.70;1.30;;;;;;;16.55;67.80;99520.91;104528;1270;75559;-25
2022/08/09 01:51:47;;;;;;;1.60;1.30;;;;;;;16.39;68.63;99521.02;104777;1271;77662;-24
2022/08/09 01:54:19;;;;;;;1.60;1.20;;;;;;;16.21;69.04;99526.64;104868;1271;74517;-25
2022/08/09 01:56:47;;;;;;;1.80;0.80;;;;;;;16.08;69.66;99531.61;104772;1271;62524;-24
2022/08/09 01:59:18;;;;;;;1.70;1.00;;;;;;;16.56;69.11;99530.23;104625;1272;62030;-24
2022/08/09 02:01:52;;;;;;;2.80;1.00;;;;;;;17.11;67.25;99525.89;104556;1272;75162;-24
2022/08/09 02:04:27;;;;;;;2.00;1.00;;;;;;;17.19;66.90;99526.64;104710;1274;75767;-24
2022/08/09 02:07:08;;;;;;;1.80;1.00;;;;;;;17.06;66.84;99531.95;104810;1271;74414;-24
2022/08/09 02:09:58;;;;;;;2.60;1.20;;;;;;;16.82;67.30;99526.16;104987;1273;62934;-24
2022/08/09 02:12:30;;;;;;;6.10;1.80;;;;;;;16.63;67.91;99525.38;104936;1271;63072;-24
2022/08/09 02:15:00;;;;;;;2.50;1.30;;;;;;;16.45;68.37;99527.27;104588;1272;76465;-24
2022/08/09 02:17:29;;;;;;;3.10;1.40;;;;;;;16.26;68.72;99526.30;104797;1272;76139;-25
2022/08/09 02:20:16;;;;;;;2.60;1.50;;;;;;;15.99;69.89;99529.09;104735;1272;75293;-24
2022/08/09 02:23:18;;;;;;;1.50;1.00;;;;;;;15.95;70.11;99528.48;104597;1271;63869;-24
2022/08/09 02:25:50;;;;;;;2.30;1.20;;;;;;;16.67;68.40;99522.91;104443;1271;61993;-24
2022/08/09 02:28:33;;;;;;;3.60;1.50;;;;;;;17.06;66.92;99519.87;105092;1272;75456;-24
2022/08/09 02:31:04;;;;;;;3.80;1.10;;;;;;;17.04;66.90;99521.66;104732;1271;76878;-24
2022/08/09 02:33:38;;;;;;;3.80;1.30;;;;;;;16.88;67.03;99523.72;104865;1271;74129;-24
2022/08/09 02:36:29;;;;;;;2.80;1.20;;;;;;;16.69;67.51;99527.55;104682;1271;62825;-24
2022/08/09 02:38:58;;;;;;;1.80;1.10;;;;;;;16.59;67.84;99529.42;104604;1271;62726;-24
2022/08/09 02:41:40;;;;;;;2.30;1.20;;;;;;;16.48;67.80;99531.23;104809;1271;76527;-24
2022/08/09 02:44:09;;;;;;;2.70;1.40;;;;;;;16.36;68.28;99537.25;104769;1272;77047;-24
2022/08/09 02:46:55;;;;;;;2.30;1.30;;;;;;;16.25;68.61;99539.62;105072;1271;73213;-24
2022/08/09 02:49:23;;;;;;;64.90;4.20;;;;;;;16.17;70.09;99537.51;105003;1272;64457;-24
2022/08/09 02:52:04;;;;;;;1.80;1.00;;;;;;;16.70;69.99;99539.42;104732;1271;61780;-24
2022/08/09 02:54:33;;;;;;;1.50;1.00;;;;;;;17.17;68.55;99537.73;104994;1271;74514;-24
2022/08/09 02:57:01;;;;;;;5.20;1.30;;;;;;;17.19;68.72;99546.13;104749;1271;76777;-24
2022/08/09 02:59:40;;;;;;;2.40;1.20;;;;;;;16.97;69.09;99550.88;104820;1271;74420;-24
2022/08/09 03:02:27;;;;;;;4.00;1.00;;;;;;;16.69;69.35;99553.73;104749;1271;63107;-24
2022/08/09 03:04:57;;;;;;;3.90;1.20;;;;;;;16.47;69.61;99562.45;104590;1271;63055;-24
2022/08/09 03:07:26;;;;;;;3.60;1.20;;;;;;;16.29;70.03;99563.18;104876;1271;76482;-25
2022/08/09 03:09:53;;;;;;;1.80;1.00;;;;;;;16.13;70.63;99561.36;104671;1271;77058;-24
2022/08/09 03:12:26;;;;;;;3.20;1.10;;;;;;;16.03;71.60;99560.64;104660;1274;75402;-24
2022/08/09 03:14:54;;;;;;;2.10;1.10;;;;;;;16.46;69.89;99559.75;104659;1271;63006;-24
2022/08/09 03:17:22;;;;;;;3.40;1.50;;;;;;;16.95;67.69;99553.45;104778;1274;62993;-24
2022/08/09 03:19:56;;;;;;;2.50;1.50;;;;;;;16.76;67.60;99557.69;104641;1274;77248;-24
2022/08/09 03:22:30;;;;;;;2.30;1.30;;;;;;;16.66;67.97;99558.56;104644;1271;75621;-24
2022/08/09 03:24:58;;;;;;;3.40;1.50;;;;;;;16.26;69.52;99554.50;104666;1271;75262;-24
2022/08/09 03:27:50;;;;;;;3.00;1.30;;;;;;;16.05;70.09;99555.54;104694;1274;61122;-24
2022/08/09 03:30:17;;;;;;;2.10;1.50;;;;;;;16.00;70.15;99557.89;104609;1274;61195;-24
2022/08/09 03:33:00;;;;;;;3.40;1.20;;;;;;;16.03;70.36;99561.11;104624;1271;76523;-24
2022/08/09 03:35:36;;;;;;;1.60;1.00;;;;;;;16.02;70.38;99562.47;104739;1271;77083;-24
2022/08/09 03:38:24;;;;;;;2.30;1.00;;;;;;;16.57;68.83;99560.65;104745;1271;75415;-24
2022/08/09 03:40:55;;;;;;;1.60;1.10;;;;;;;16.97;67.17;99563.08;105012;1271;61057;-24
2022/08/09 03:43:22;;;;;;;3.70;1.20;;;;;;;16.91;67.26;99569.02;104741;1271;62145;-24
2022/08/09 03:45:50;;;;;;;1.30;1.10;;;;;;;16.73;67.24;99569.59;104700;1271;76601;-24
2022/08/09 03:48:37;;;;;;;4.10;1.50;;;;;;;16.61;67.93;99573.70;104782;1271;75887;-24
2022/08/09 03:51:18;;;;;;;4.10;1.30;;;;;;;16.20;69.34;99572.05;104561;1274;75173;-25
2022/08/09 03:54:06;;;;;;;3.60;1.30;;;;;;;16.13;69.86;99570.11;104748;1271;63115;-24
2022/08/09 03:56:38;;;;;;;2.00;1.20;;;;;;;16.01;70.05;99567.95;104657;1274;63092;-24
2022/08/09 03:59:13;;;;;;;4.30;1.10;;;;;;;16.07;70.18;99573.17;104740;1272;75372;-24
2022/08/09 04:01:54;;;;;;;2.60;1.10;;;;;;;16.71;68.04;99567.33;104762;1271;76110;-24
2022/08/09 04:04:25;;;;;;;1.50;1.20;;;;;;;17.23;66.05;99563.96;104620;1271;74191;-24
2022/08/09 04:07:02;;;;;;;4.40;1.20;;;;;;;17.37;65.86;99563.82;104606;1274;62767;-24
2022/08/09 04:09:30;;;;;;;3.70;1.30;;;;;;;17.08;66.56;99566.31;104824;1274;62980;-24
2022/08/09 04:12:14;;;;;;;4.90;1.50;;;;;;;16.89;67.34;99566.40;104746;1270;76646;-24
2022/08/09 04:14:57;;;;;;;3.00;1.40;;;;;;;16.82;67.88;99568.67;104703;1274;76869;-24
2022/08/09 04:17:28;;;;;;;2.90;1.30;;;;;;;16.85;67.89;99566.45;104752;1271;73283;-24
2022/08/09 04:19:57;;;;;;;2.00;1.20;;;;;;;16.82;67.46;99569.53;104586;1274;62000;-24
2022/08/09 04:22:28;;;;;;;2.50;1.20;;;;;;;16.81;68.05;99574.52;104627;1274;62028;-24
2022/08/09 04:24:58;;;;;;;1.60;1.20;;;;;;;16.88;68.00;99571.58;104643;1274;76617;-24
2022/08/09 04:27:27;;;;;;;2.70;1.20;;;;;;;16.93;67.74;99568.48;104470;1273;75830;-24
2022/08/09 04:29:55;;;;;;;1.20;1.00;;;;;;;17.25;66.65;99566.14;104542;1274;75143;-24
2022/08/09 04:32:23;;;;;;;3.00;1.20;;;;;;;17.41;65.50;99566.41;104415;1274;62060;-24
2022/08/09 04:35:05;;;;;;;3.70;1.20;;;;;;;17.39;65.44;99566.48;104590;1274;63016;-24
2022/08/09 04:37:37;;;;;;;4.00;1.80;;;;;;;17.39;65.62;99566.76;104638;1274;75288;-24
2022/08/09 04:40:12;;;;;;;4.50;2.00;;;;;;;17.26;66.24;99567.02;104556;1274;76886;-24
2022/08/09 04:43:00;;;;;;;2.40;1.80;;;;;;;16.90;66.73;99570.02;104601;1274;75361;-24
2022/08/09 04:45:29;;;;;;;4.80;1.90;;;;;;;16.93;66.92;99573.95;104587;1274;62990;-24
2022/08/09 04:48:01;;;;;;;5.00;1.80;;;;;;;16.83;67.17;99576.99;104652;1274;63126;-24
2022/08/09 04:50:36;;;;;;;2.20;1.50;;;;;;;16.73;67.99;99576.59;104629;1274;76579;-24
2022/08/09 04:53:06;;;;;;;8.50;2.00;;;;;;;16.85;67.60;99570.36;104674;1274;77127;-24
2022/08/09 04:55:40;;;;;;;1.40;1.00;;;;;;;17.04;67.16;99565.14;104393;1274;75352;-24
2022/08/09 04:58:29;;;;;;;2.80;1.40;;;;;;;17.76;64.90;99563.89;104384;1274;62989;-24
2022/08/09 05:01:00;;;;;;;2.40;1.40;;;;;;;18.22;63.25;99564.42;104388;1274;61143;-25
2022/08/09 05:03:27;;;;;;;3.20;1.40;;;;;;;18.06;63.27;99564.47;104435;1274;76495;-24
2022/08/09 05:06:10;;;;;;;2.60;1.50;;;;;;;18.02;63.87;99567.34;104770;1274;76960;-24
2022/08/09 05:08:53;;;;;;;;;;;;;;;18.12;63.51;99572.96;104579;1274;75421;-24
2022/08/09 05:11:28;;;;;;;2.40;1.50;;;;;;;17.90;64.28;99575.76;104580;1273;61132;-24
2022/08/09 05:13:58;;;;;;;2.50;1.50;;;;;;;17.89;64.83;99577.13;104530;1274;61166;-24
2022/08/09 05:16:25;;;;;;;5.90;2.10;;;;;;;17.77;65.07;99582.59;104607;1274;76240;-24
2022/08/09 05:18:58;;;;;;;4.20;1.80;;;;;;;17.53;65.80;99585.52;104710;1274;74465;-23
2022/08/09 05:21:28;;;;;;;3.30;1.50;;;;;;;17.61;65.89;99587.65;104890;1274;75292;-23
2022/08/09 05:24:16;;;;;;;2.90;1.60;;;;;;;17.75;65.47;99584.83;104767;1274;61039;-23
2022/08/09 05:26:43;;;;;;;6.00;2.00;;;;;;;17.67;66.01;99584.06;104659;1273;62743;-23
2022/08/09 05:29:18;;;;;;;4.20;2.00;;;;;;;17.74;66.39;99585.51;104589;1274;76894;-23
2022/08/09 05:31:49;;;;;;;4.60;2.10;;;;;;;17.68;66.61;99584.48;103795;1274;1203752;-23
2022/08/09 05:34:28;;;;;;;2.20;1.60;;;;;;;17.94;66.06;99583.54;104595;1273;74178;-23
2022/08/09 05:37:03;;;;;;;4.60;1.90;;;;;;;18.36;65.00;99580.53;104626;1274;61931;-23
2022/08/09 05:39:34;;;;;;;4.60;1.80;;;;;;;18.38;64.75;99582.93;104617;1274;61053;-24
2022/08/09 05:42:12;;;;;;;2.30;1.50;;;;;;;18.06;65.78;99582.56;104594;1274;76647;-25
2022/08/09 05:44:51;;;;;;;7.10;1.80;;;;;;;18.08;66.24;99584.29;104689;1274;77305;-24
2022/08/09 05:47:20;;;;;;;4.20;2.00;;;;;;;18.42;65.49;99587.99;104643;1274;75220;-23
2022/08/09 05:49:50;;;;;;;3.20;1.80;;;;;;;18.41;65.58;99592.56;104680;1274;61253;-23
2022/08/09 05:52:38;;;;;;;4.10;1.90;;;;;;;18.35;65.83;99588.84;104527;1274;62063;-23
2022/08/09 05:55:06;;;;;;;2.40;1.70;;;;;;;18.36;65.93;99591.72;104697;1274;76412;-23
2022/08/09 05:57:35;;;;;;;2.30;1.60;;;;;;;18.52;65.66;99597.06;104666;1274;76358;-23
2022/08/09 06:00:22;;;;;;;3.60;1.80;;;;;;;18.59;65.13;99597.55;104659;1274;75499;-24
2022/08/09 06:02:51;;;;;;;7.10;1.60;;;;;;;18.78;64.99;99601.16;104759;1274;64637;-23
2022/08/09 06:05:20;;;;;;;3.00;1.40;;;;;;;19.27;63.17;99599.17;104636;1275;61344;-23
2022/08/09 06:08:08;;;;;;;2.20;1.50;;;;;;;19.81;61.40;99599.41;104770;1274;76298;-23
2022/08/09 06:10:37;;;;;;;3.10;1.60;;;;;;;20.25;61.18;99607.50;104842;1274;76901;-23
2022/08/09 06:13:09;;;;;;;2.60;1.70;;;;;;;19.68;61.03;99604.55;104718;1274;75747;-23
2022/08/09 06:15:44;;;;;;;2.20;1.50;;;;;;;19.95;61.59;99613.35;104317;1274;63128;-23
2022/08/09 06:18:13;;;;;;;6.00;1.60;;;;;;;20.11;60.90;99612.35;104615;1274;61124;-23
2022/08/09 06:20:42;;;;;;;3.20;1.30;;;;;;;20.05;61.24;99621.39;104620;1274;76638;-23
2022/08/09 06:23:23;;;;;;;3.40;1.80;;;;;;;20.05;61.26;99626.31;104750;1274;77005;-23
2022/08/09 06:26:10;;;;;;;1.90;1.30;;;;;;;20.09;61.10;99627.12;104842;1271;75452;-23
2022/08/09 06:28:38;;;;;;;1.80;1.00;;;;;;;20.02;61.59;99627.38;104980;1273;61080;-23
2022/08/09 06:31:09;;;;;;;7.30;1.50;;;;;;;19.74;60.53;99624.41;104906;1274;62002;-23
2022/08/09 06:33:37;;;;;;;2.30;1.70;;;;;;;19.64;61.20;99619.95;104880;1274;76401;-23
2022/08/09 06:36:08;;;;;;;3.40;1.90;;;;;;;19.52;61.72;99622.05;104656;1274;75858;-23
2022/08/09 06:38:39;;;;;;;5.80;1.60;;;;;;;19.47;61.66;99623.04;104647;1271;75391;-23
2022/08/09 06:41:16;;;;;;;4.50;1.40;;;;;;;19.36;62.00;99621.75;104682;1273;63298;-23
2022/08/09 06:43:46;;;;;;;8.70;1.50;;;;;;;19.29;62.26;99617.52;104788;1274;61294;-23
2022/08/09 06:46:14;;;;;;;2.10;1.30;;;;;;;19.08;63.24;99616.84;104665;1271;75768;-23
2022/08/09 06:49:01;;;;;;;3.20;1.60;;;;;;;18.89;63.86;99612.17;104666;1274;76368;-23
2022/08/09 06:51:29;;;;;;;5.30;1.70;;;;;;;19.06;64.36;99612.48;104743;1271;74381;-23
2022/08/09 06:53:56;;;;;;;8.10;1.70;;;;;;;18.98;66.51;99613.27;104765;1274;61860;-23
2022/08/09 06:56:27;;;;;;;2.50;1.20;;;;;;;19.08;65.98;99615.11;104656;1271;61147;-23
2022/08/09 06:59:41;;;;;;;10.70;1.60;;;;;;;19.39;66.27;99614.90;101659;1309;600407;-23
2022/08/09 07:02:28;;;;;;;17.60;10.20;;;;;;;19.06;66.11;99617.42;104246;1284;62880;-23
2022/08/09 07:04:59;;;;;;;7.40;4.90;;;;;;;19.12;67.75;99619.02;104178;1287;62137;-23
2022/08/09 07:07:27;;;;;;;2.80;1.80;;;;;;;18.83;68.91;99620.34;103629;1287;75174;-23
2022/08/09 07:10:14;;;;;;;5.70;2.30;;;;;;;18.85;69.87;99620.52;104172;1287;76998;-23
2022/08/09 07:12:55;;;;;;;12.90;4.80;;;;;;;18.82;71.88;99631.00;103251;1284;1393001;-23
2022/08/09 07:15:25;;;;;;;4.90;2.40;;;;;;;19.30;70.30;99634.16;104429;1284;63134;-24
2022/08/09 07:18:12;;;;;;;3.10;1.50;;;;;;;19.74;69.86;99631.49;104217;1283;62763;-23
2022/08/09 07:20:41;;;;;;;3.00;1.80;;;;;;;19.69;69.40;99632.86;104404;1282;75096;-23
2022/08/09 07:23:13;;;;;;;4.10;1.40;;;;;;;19.13;69.64;99634.37;104310;1284;76680;-23
2022/08/09 07:25:47;;;;;;;3.40;1.60;;;;;;;18.81;71.96;99628.10;104245;1284;74434;-23
2022/08/09 07:28:28;;;;;;;3.90;2.10;;;;;;;18.72;72.42;99633.80;103940;1284;62010;-23
2022/08/09 07:31:01;;;;;;;2.20;1.50;;;;;;;18.62;73.85;99632.44;105107;1271;63063;-22
2022/08/09 07:33:30;;;;;;;3.40;1.20;;;;;;;18.53;75.53;99632.73;104877;1271;75744;-22
2022/08/09 07:36:18;;;;;;;8.00;1.40;;;;;;;19.14;74.26;99633.45;104908;1271;75617;-23
2022/08/09 07:38:48;;;;;;;1.80;1.00;;;;;;;19.61;71.94;99636.06;105013;1274;75177;-22
2022/08/09 07:41:26;;;;;;;2.20;1.20;;;;;;;19.70;72.35;99638.08;104902;1271;61377;-22
2022/08/09 07:43:59;;;;;;;1.30;1.10;;;;;;;19.57;72.02;99641.96;104732;1271;63118;-24
2022/08/09 07:46:26;;;;;;;2.90;1.60;;;;;;;19.43;73.50;99644.49;104601;1274;73979;-23
2022/08/09 07:48:55;;;;;;;1.80;1.20;;;;;;;19.24;74.07;99643.18;104846;1271;76729;-23
2022/08/09 07:51:25;;;;;;;2.30;1.20;;;;;;;19.09;75.95;99643.31;104989;1271;75502;-24
2022/08/09 07:54:12;;;;;;;8.10;3.30;;;;;;;19.68;75.30;99636.90;104716;1274;61721;-24
2022/08/09 07:56:40;;;;;;;10.40;5.50;;;;;;;19.80;72.50;99631.42;104782;1271;61072;-23
2022/08/09 07:59:17;;;;;;;3.60;2.90;;;;;;;19.55;72.57;99630.90;104708;1273;76087;-24
2022/08/09 08:02:01;;;;;;;4.40;2.40;;;;;;;19.19;74.25;99630.22;104940;1274;77046;-25
2022/08/09 08:04:30;;;;;;;6.20;1.90;;;;;;;18.91;75.50;99634.23;104931;1274;75361;-24
2022/08/09 08:07:02;;;;;;;3.50;2.00;;;;;;;18.99;76.00;99637.75;104782;1272;62154;-25
2022/08/09 08:09:51;;;;;;;12.40;2.90;;;;;;;18.59;74.92;99637.77;104604;1274;63064;-24
2022/08/09 08:12:35;;;;;;;54.00;46.00;;;;;;;18.68;75.41;99648.01;104532;1274;75760;-26
2022/08/09 08:15:18;;;;;;;6.20;4.90;;;;;;;19.30;74.88;99646.84;104596;1275;76926;-26
2022/08/09 08:17:52;;;;;;;7.90;5.50;;;;;;;19.54;73.50;99644.46;104299;1273;74117;-26
2022/08/09 08:20:25;;;;;;;18.60;14.30;;;;;;;19.55;73.03;99642.56;104771;1274;61860;-23
2022/08/09 08:22:57;;;;;;;8.10;4.60;;;;;;;18.98;74.48;99639.33;104658;1274;63056;-25
2022/08/09 08:25:33;;;;;;;4.90;2.70;;;;;;;19.06;75.43;99640.63;104624;1274;75745;-26
2022/08/09 08:28:10;;;;;;;15.90;3.90;;;;;;;18.99;75.36;99643.31;104742;1274;75418;-25
2022/08/09 08:30:42;;;;;;;10.20;3.80;;;;;;;19.53;74.95;99647.55;104912;1274;73679;-26
2022/08/09 08:33:10;;;;;;;10.40;3.10;;;;;;;19.76;72.69;99642.86;104438;1273;61748;-23
2022/08/09 08:35:51;;;;;;;5.70;2.40;;;;;;;19.54;73.64;99651.92;104647;1274;62811;-23
2022/08/09 08:38:28;;;;;;;3.10;1.60;;;;;;;19.75;74.49;99655.35;104837;1274;75696;-23
2022/08/09 08:40:56;;;;;;;1.80;1.70;;;;;;;19.91;73.83;99656.91;104653;1274;75650;-24
2022/08/09 08:43:23;;;;;;;1.60;1.20;;;;;;;19.89;73.27;99652.20;104735;1274;74123;-23
2022/08/09 08:45:55;;;;;;;4.90;1.70;;;;;;;20.55;72.60;99653.16;105053;1274;63164;-23
2022/08/09 08:48:42;;;;;;;1.50;1.40;;;;;;;20.90;71.17;99652.00;104595;1274;62536;-24
2022/08/09 08:51:21;;;;;;;2.80;1.80;;;;;;;21.03;70.78;99650.38;104696;1274;74738;-24
2022/08/09 08:53:51;;;;;;;2.40;1.60;;;;;;;20.53;71.47;99646.52;104685;1274;75123;-23
2022/08/09 08:56:31;;;;;;;3.40;1.80;;;;;;;20.50;70.45;99648.75;104655;1274;75491;-24
2022/08/09 08:59:05;;;;;;;2.50;1.60;;;;;;;20.38;71.14;99648.88;104997;1274;61165;-23
2022/08/09 09:01:47;;;;;;;3.30;1.70;;;;;;;20.41;71.20;99652.29;104698;1274;61049;-23
2022/08/09 09:04:25;;;;;;;3.60;1.90;;;;;;;19.74;73.22;99654.42;104671;1274;74703;-25
2022/08/09 09:06:55;;;;;;;5.80;1.30;;;;;;;19.42;73.75;99652.98;104830;1274;76148;-25
2022/08/09 09:09:25;;;;;;;5.80;2.00;;;;;;;19.93;73.60;99647.04;104720;1274;75301;-25
2022/08/09 09:12:16;;;;;;;3.80;1.70;;;;;;;20.67;70.70;99649.89;104792;1274;62771;-25
2022/08/09 09:14:45;;;;;;;5.20;4.70;;;;;;;20.52;70.26;99647.90;104684;1274;62099;-24
2022/08/09 09:17:12;;;;;;;3.30;1.90;;;;;;;20.06;74.22;99648.44;104561;1274;75608;-23
2022/08/09 09:19:42;;;;;;;3.20;2.10;;;;;;;20.25;73.36;99653.91;105002;1274;77040;-23
2022/08/09 09:22:15;;;;;;;2.80;2.00;;;;;;;19.91;72.80;99649.75;104864;1274;74325;-23
2022/08/09 09:24:49;;;;;;;4.40;2.20;;;;;;;20.20;72.59;99657.80;104607;1273;63045;-22
2022/08/09 09:27:24;;;;;;;5.00;2.80;;;;;;;19.92;71.89;99653.13;104755;1274;61743;-23
2022/08/09 09:30:12;;;;;;;3.00;1.90;;;;;;;20.97;71.42;99653.86;104798;1274;74239;-23
2022/08/09 09:33:03;;;;;;;2.30;1.90;;;;;;;20.56;70.85;99652.48;104973;1274;76717;-23
2022/08/09 09:35:54;;;;;;;4.80;1.90;;;;;;;20.44;70.67;99657.80;104698;1275;75729;-23
2022/08/09 09:38:49;;;;;;;5.00;1.80;;;;;;;20.62;71.72;99660.29;104520;1274;63102;-23
2022/08/09 09:41:23;;;;;;;5.90;2.10;;;;;;;20.94;71.00;99662.38;104677;1274;61841;-23
2022/08/09 09:43:55;;;;;;;6.30;5.60;;;;;;;19.95;71.67;99659.23;104965;1274;74778;-24
2022/08/09 09:46:40;;;;;;;5.00;2.50;;;;;;;19.61;72.13;99662.32;104576;1274;75222;-25
2022/08/09 09:49:12;;;;;;;5.60;2.70;;;;;;;19.69;72.15;99654.41;104701;1274;73976;-23
2022/08/09 09:51:40;;;;;;;2.70;2.40;;;;;;;19.85;71.09;99655.31;104409;1273;62030;-23
2022/08/09 09:54:11;;;;;;;4.60;1.90;;;;;;;20.24;71.20;99657.68;104827;1274;61705;-23
2022/08/09 09:56:48;;;;;;;5.40;1.70;;;;;;;20.63;70.25;99659.10;104677;1273;75614;-24
2022/08/09 09:59:35;;;;;;;4.20;2.30;;;;;;;20.34;68.19;99656.48;104785;1274;76760;-23
2022/08/09 10:02:05;;;;;;;3.30;2.60;;;;;;;20.22;71.42;99661.86;104897;1274;74414;-23
2022/08/09 10:04:34;;;;;;;5.90;2.50;;;;;;;20.40;71.45;99667.41;104945;1274;61164;-23
2022/08/09 10:07:01;;;;;;;6.50;1.90;;;;;;;20.67;69.92;99669.47;104698;1274;63018;-23
2022/08/09 10:09:47;;;;;;;3.10;2.20;;;;;;;20.90;68.68;99667.42;104746;1274;76136;-23
2022/08/09 10:12:28;;;;;;;4.30;2.30;;;;;;;20.37;68.78;99659.09;105065;1274;77005;-23
2022/08/09 10:15:07;;;;;;;4.50;2.40;;;;;;;20.35;69.61;99660.36;105032;1274;75394;-23
2022/08/09 10:17:51;;;;;;;;;;;;;;;20.65;67.99;99659.28;105088;1274;62875;-23
2022/08/09 10:20:25;;;;;;;3.70;1.90;;;;;;;20.15;67.59;99658.02;104858;1274;61726;-23
2022/08/09 10:23:19;;;;;;;3.20;1.70;;;;;;;20.29;67.09;99657.89;104767;1273;75779;-23
2022/08/09 10:25:48;;;;;;;1.90;1.30;;;;;;;20.12;60.31;99647.72;104814;1274;77042;-23
2022/08/09 10:28:35;;;;;;;1.60;1.10;;;;;;;20.09;59.47;99643.22;104596;1274;74287;-24
2022/08/09 10:31:03;;;;;;;5.20;4.70;;;;;;;19.86;56.24;99643.39;104672;1274;61343;-24
2022/08/09 10:33:50;;;;;;;2.90;1.60;;;;;;;19.84;55.79;99637.11;104864;1274;62152;-24
2022/08/09 10:36:38;;;;;;;2.50;1.20;;;;;;;19.90;56.71;99635.35;105006;1274;75884;-24
2022/08/09 10:39:09;;;;;;;2.60;1.30;;;;;;;19.92;56.52;99636.27;104596;1274;75746;-24
2022/08/09 10:41:45;;;;;;;27.80;2.50;;;;;;;20.22;57.62;99636.11;104580;1274;74394;-24
2022/08/09 10:44:18;;;;;;;11.60;1.40;;;;;;;20.56;56.89;99638.65;105136;1274;61096;-24
2022/08/09 10:47:26;;;;;;;5.80;1.50;;;;;;;20.48;56.55;99638.95;105027;1274;61655;-24
2022/08/09 10:50:23;;;;;;;8.50;1.30;;;;;;;20.34;56.49;99635.48;105091;1274;73625;-24
2022/08/09 10:53:19;;;;;;;2.50;1.30;;;;;;;20.28;57.26;99636.46;105119;1274;76253;-24
2022/08/09 10:55:49;;;;;;;4.70;1.70;;;;;;;20.28;58.78;99640.13;104826;1273;74341;-24
2022/08/09 10:58:29;;;;;;;6.20;1.60;;;;;;;20.41;58.93;99637.61;104735;1274;61960;-24
2022/08/09 11:00:59;;;;;;;2.40;1.30;;;;;;;20.65;58.55;99644.66;104723;1274;61160;-24
2022/08/09 11:04:09;;;;;;;2.00;1.30;;;;;;;20.71;60.93;99650.98;104862;1274;75761;-24
2022/08/09 11:07:02;;;;;;;7.00;1.30;;;;;;;20.67;61.23;99649.19;104997;1273;76123;-24
2022/08/09 11:09:48;;;;;;;1.60;1.30;;;;;;;20.22;61.14;99647.68;105027;1274;74316;-24
2022/08/09 11:12:23;;;;;;;9.20;6.40;;;;;;;20.30;61.55;99650.34;104660;1274;62576;-23
2022/08/09 11:14:56;;;;;;;3.00;1.60;;;;;;;20.28;61.71;99650.02;104912;1273;63021;-24
2022/08/09 11:17:24;;;;;;;4.60;1.20;;;;;;;20.18;61.37;99651.33;104670;1274;75881;-24
2022/08/09 11:20:09;;;;;;;2.70;2.00;;;;;;;20.32;60.03;99652.01;104781;1274;76939;-24
2022/08/09 11:22:50;;;;;;;2.50;1.10;;;;;;;19.91;55.74;99653.13;104874;1274;73270;-24
2022/08/09 11:25:28;;;;;;;3.40;1.80;;;;;;;19.90;55.98;99651.77;105122;1272;63052;-24
2022/08/09 11:28:30;;;;;;;4.30;2.80;;;;;;;20.00;56.70;99649.23;105113;1273;61799;-24
2022/08/09 11:31:02;;;;;;;7.90;3.90;;;;;;;19.78;57.23;99640.71;105035;1274;75470;-24
2022/08/09 11:33:40;;;;;;;7.00;2.00;;;;;;;19.69;56.69;99638.33;104616;1274;76964;-24
2022/08/09 11:36:09;;;;;;;3.10;1.40;;;;;;;19.73;56.94;99640.06;104645;1274;75125;-24
2022/08/09 11:39:00;;;;;;;11.40;3.80;;;;;;;19.70;56.62;99637.27;104745;1274;63273;-24
2022/08/09 11:41:28;;;;;;;1.50;1.20;;;;;;;19.72;57.08;99639.04;104966;1274;61707;-24
2022/08/09 11:44:04;;;;;;;2.50;1.40;;;;;;;19.68;56.27;99640.47;105093;1274;76039;-24
2022/08/09 11:46:55;;;;;;;6.30;1.30;;;;;;;19.74;56.90;99643.82;105106;1272;75178;-24
2022/08/09 11:50:01;;;;;;;1.70;1.20;;;;;;;19.74;56.00;99644.41;104736;1271;75569;-24
2022/08/09 11:52:58;;;;;;;2.30;1.60;;;;;;;19.76;55.84;99642.33;104877;1274;61581;-24
2022/08/09 11:55:46;;;;;;;1.80;1.40;;;;;;;19.86;56.09;99645.00;104692;1274;61739;-24
2022/08/09 11:58:29;;;;;;;3.20;1.00;;;;;;;19.84;55.22;99642.24;104781;1271;75341;-24
2022/08/09 12:01:07;;;;;;;3.10;1.20;;;;;;;19.86;55.37;99642.50;104707;1274;75787;-24
2022/08/09 12:04:02;;;;;;;2.40;1.00;;;;;;;19.84;55.00;99642.61;104579;1273;75263;-24
2022/08/09 12:06:32;;;;;;;1.30;0.90;;;;;;;19.81;54.95;99640.11;104607;1272;61155;-24
2022/08/09 12:09:06;;;;;;;3.20;1.20;;;;;;;19.81;53.29;99640.63;104903;1272;61985;-24
2022/08/09 12:11:58;;;;;;;4.30;1.10;;;;;;;19.93;54.59;99643.87;104657;1274;76672;-24